Time;durP1;ratioP1;P1;durP2;ratioP2;P2;SDS_P1;SDS_P2;PMS_P1;PMS_P2;Temp;Humidity;BMP_temperature;BMP_pressure;BME280_temperature;BME280_humidity;BME280_pressure;Samples;Min_cycle;Max_cycle;Signal;HPM_P1;HPM_P2
2022/09/14 00:00:00;;;;;;;7.90;6.30;;;;;;;15.54;70.98;94796.75;5052563;28;20554;-81
2022/09/14 00:02:27;;;;;;;9.70;7.57;;;;;;;15.45;71.17;94798.53;5052704;28;20449;-81
2022/09/14 00:04:54;;;;;;;7.60;6.90;;;;;;;15.46;71.08;94800.19;5052378;28;20831;-81
2022/09/14 00:07:20;;;;;;;7.43;5.97;;;;;;;15.31;70.91;94793.03;5052574;28;20540;-81
2022/09/14 00:09:47;;;;;;;7.63;6.87;;;;;;;15.30;71.24;94810.72;5052337;28;20439;-81
2022/09/14 00:12:14;;;;;;;6.30;5.73;;;;;;;15.20;71.75;94804.75;5052468;28;20499;-80
2022/09/14 00:14:42;;;;;;;9.60;6.17;;;;;;;15.18;71.65;94802.28;5052197;28;20450;-81
2022/09/14 00:17:09;;;;;;;6.57;5.90;;;;;;;15.14;72.10;94793.00;5052162;28;20685;-80
2022/09/14 00:19:36;;;;;;;10.57;6.10;;;;;;;15.05;72.55;94801.91;5052079;28;20499;-81
2022/09/14 00:22:05;;;;;;;6.70;6.10;;;;;;;14.97;72.92;94793.09;5052280;28;20442;-81
2022/09/14 00:24:33;;;;;;;9.83;5.93;;;;;;;15.06;72.90;94803.56;5052020;28;20491;-81
2022/09/14 00:27:01;;;;;;;6.17;5.67;;;;;;;15.09;73.28;94797.13;5052391;28;20779;-81
2022/09/14 00:29:29;;;;;;;5.37;4.97;;;;;;;15.05;72.88;94807.19;5052078;28;20481;-80
2022/09/14 00:31:57;;;;;;;6.27;5.67;;;;;;;15.03;73.16;94801.22;5052235;28;20852;-81
2022/09/14 00:34:24;;;;;;;5.93;5.43;;;;;;;14.96;73.74;94788.81;5052182;28;20441;-80
2022/09/14 00:36:52;;;;;;;6.27;5.67;;;;;;;14.82;74.03;94796.34;5052296;28;20457;-81
2022/09/14 00:39:20;;;;;;;6.73;6.13;;;;;;;14.72;74.52;94795.63;5052008;28;20434;-81
2022/09/14 00:41:49;;;;;;;7.23;5.93;;;;;;;14.73;74.94;94791.16;5051973;28;20441;-81
2022/09/14 00:44:53;;;;;;;6.50;5.90;;;;;;;14.70;75.33;94805.53;5051759;28;20848;-81
2022/09/14 00:47:22;;;;;;;6.20;5.70;;;;;;;14.74;75.38;94795.47;5051727;28;20671;-81
2022/09/14 00:49:49;;;;;;;6.57;5.70;;;;;;;14.72;74.58;94802.72;5051542;28;20457;-81
2022/09/14 00:52:20;;;;;;;5.53;5.03;;;;;;;14.73;74.56;94812.31;5052389;28;20448;-80
2022/09/14 00:54:49;;;;;;;6.47;5.60;;;;;;;14.78;75.01;94802.94;5021451;28;20441;-80
2022/09/14 00:57:17;;;;;;;5.87;5.40;;;;;;;14.79;74.54;94807.25;5055639;28;20802;-81
2022/09/14 00:59:45;;;;;;;5.60;5.10;;;;;;;14.83;74.42;94802.47;5055827;28;20867;-80
2022/09/14 01:02:14;;;;;;;5.90;5.10;;;;;;;14.84;74.63;94812.88;5055827;28;20457;-81
2022/09/14 01:04:43;;;;;;;5.30;4.90;;;;;;;14.91;74.19;94806.94;5055669;28;20587;-81
2022/09/14 01:07:22;;;;;;;5.23;4.57;;;;;;;14.89;73.91;94804.47;5055756;28;20850;-81
2022/09/14 01:10:00;;;;;;;4.90;4.53;;;;;;;14.95;73.64;94811.75;5055941;28;20932;-81
2022/09/14 01:12:36;;;;;;;5.07;4.67;;;;;;;14.97;73.35;94823.00;5055618;28;20536;-81
2022/09/14 01:15:08;;;;;;;6.17;4.57;;;;;;;14.99;73.58;94813.09;5055115;28;20527;-81
2022/09/14 01:17:43;;;;;;;5.07;4.67;;;;;;;15.05;73.32;94812.47;5055427;28;20465;-81
2022/09/14 01:20:26;;;;;;;5.30;4.90;;;;;;;15.03;73.17;94814.41;5055106;28;20447;-81
2022/09/14 01:23:02;;;;;;;4.93;4.50;;;;;;;15.02;73.46;94817.22;5055874;28;20468;-80
2022/09/14 01:26:03;;;;;;;4.83;4.43;;;;;;;14.96;73.60;94815.22;5055201;28;21117;-81
2022/09/14 01:28:40;;;;;;;4.93;4.33;;;;;;;14.84;73.67;94818.16;5055100;28;20867;-81
2022/09/14 01:31:12;;;;;;;7.93;4.30;;;;;;;14.79;73.84;94816.97;5055435;28;20831;-81
2022/09/14 01:33:46;;;;;;;5.47;4.97;;;;;;;14.78;73.71;94810.03;5054955;28;20796;-81
2022/09/14 01:36:16;;;;;;;5.90;5.40;;;;;;;14.72;74.04;94802.72;5054759;28;20485;-81
2022/09/14 01:38:48;;;;;;;4.43;4.13;;;;;;;14.69;74.32;94813.59;5020486;28;20445;-81
2022/09/14 01:41:19;;;;;;;5.07;4.67;;;;;;;14.63;74.86;94817.69;5054981;28;20544;-81
2022/09/14 01:43:53;;;;;;;4.70;4.30;;;;;;;14.62;74.86;94809.94;5054552;28;20514;-81
2022/09/14 01:46:25;;;;;;;5.00;4.53;;;;;;;14.62;75.07;94815.22;5055242;28;20445;-81
2022/09/14 01:48:58;;;;;;;4.80;4.40;;;;;;;14.57;74.99;94808.59;5054606;28;20441;-81
2022/09/14 01:51:31;;;;;;;4.70;4.40;;;;;;;14.57;75.51;94805.97;5054746;28;20472;-81
2022/09/14 01:54:02;;;;;;;7.60;4.37;;;;;;;14.57;75.66;94811.25;5054878;28;20814;-81
2022/09/14 01:56:36;;;;;;;7.63;5.50;;;;;;;14.49;75.58;94805.09;5020488;28;20507;-81
2022/09/14 01:59:09;;;;;;;4.67;4.27;;;;;;;14.49;75.72;94815.66;5054310;28;20955;-81
2022/09/14 02:01:41;;;;;;;5.90;4.97;;;;;;;14.39;76.55;94807.78;5054999;28;20467;-81
2022/09/14 02:04:13;;;;;;;7.43;5.03;;;;;;;14.42;76.08;94811.91;5053890;28;20488;-81
2022/09/14 02:06:42;;;;;;;4.90;4.50;;;;;;;14.38;76.12;94811.41;5054691;28;20449;-81
2022/09/14 02:09:12;;;;;;;5.20;4.70;;;;;;;14.36;76.56;94823.94;5054381;28;20441;-81
2022/09/14 02:11:40;;;;;;;5.23;4.80;;;;;;;14.30;76.75;94810.53;5054224;28;20434;-81
2022/09/14 02:14:08;;;;;;;4.87;4.50;;;;;;;14.29;76.58;94814.16;5054645;28;20472;-81
2022/09/14 02:16:35;;;;;;;5.63;5.17;;;;;;;14.30;77.02;94807.91;5052279;28;20438;-81
2022/09/14 02:19:03;;;;;;;7.30;5.30;;;;;;;14.31;77.43;94804.28;5054292;28;20469;-81
2022/09/14 02:21:32;;;;;;;7.70;5.53;;;;;;;14.28;77.70;94810.69;5054217;28;20937;-81
2022/09/14 02:24:00;;;;;;;5.53;5.00;;;;;;;14.23;77.59;94811.16;5054156;28;20442;-81
2022/09/14 02:26:29;;;;;;;4.60;4.30;;;;;;;14.25;78.08;94806.56;5054406;28;20501;-81
2022/09/14 02:28:56;;;;;;;5.73;4.90;;;;;;;14.26;77.41;94817.94;5054052;28;20929;-81
2022/09/14 02:31:32;;;;;;;5.67;5.27;;;;;;;14.19;77.69;94806.34;5053993;28;20441;-81
2022/09/14 02:34:06;;;;;;;6.20;4.97;;;;;;;14.23;77.17;94803.25;5054175;28;20499;-81
2022/09/14 02:36:46;;;;;;;5.90;5.50;;;;;;;14.21;77.55;94809.66;5054056;28;20927;-81
2022/09/14 02:39:23;;;;;;;5.57;5.10;;;;;;;14.18;77.97;94802.06;5053917;28;20449;-81
2022/09/14 02:42:00;;;;;;;7.57;5.30;;;;;;;14.19;78.14;94815.09;5053907;28;20449;-80
2022/09/14 02:44:35;;;;;;;6.13;5.63;;;;;;;14.17;77.96;94810.94;5053711;28;20892;-81
2022/09/14 02:47:09;;;;;;;5.27;4.97;;;;;;;14.16;77.89;94811.91;5053727;28;20461;-81
2022/09/14 02:49:44;;;;;;;5.43;4.93;;;;;;;14.13;78.22;94826.25;5053995;28;20453;-81
2022/09/14 02:52:17;;;;;;;7.00;5.90;;;;;;;14.13;78.28;94818.31;5053528;28;20441;-81
2022/09/14 02:54:50;;;;;;;5.70;5.10;;;;;;;14.06;78.12;94814.66;5053471;28;20456;-81
2022/09/14 02:57:17;;;;;;;5.70;5.20;;;;;;;14.05;78.45;94820.91;5053578;28;20449;-81
2022/09/14 02:59:44;;;;;;;5.20;4.73;;;;;;;14.06;78.50;94819.91;5053433;28;20503;-81
2022/09/14 03:02:12;;;;;;;5.30;4.90;;;;;;;14.05;78.72;94820.91;5053318;28;20461;-81
2022/09/14 03:04:39;;;;;;;5.77;5.37;;;;;;;14.07;78.73;94816.31;5018382;28;20482;-81
2022/09/14 03:07:05;;;;;;;5.97;5.47;;;;;;;14.09;78.62;94813.50;5051150;28;20837;-81
2022/09/14 03:09:32;;;;;;;5.27;4.87;;;;;;;14.10;78.85;94816.00;5053132;28;20454;-81
2022/09/14 03:11:59;;;;;;;8.83;5.30;;;;;;;14.13;78.76;94822.78;5053376;28;20513;-81
2022/09/14 03:14:26;;;;;;;5.83;5.23;;;;;;;14.14;78.67;94827.91;5053120;28;20453;-81
2022/09/14 03:16:53;;;;;;;9.13;5.60;;;;;;;14.16;78.77;94819.81;5052870;28;20465;-81
2022/09/14 03:19:21;;;;;;;5.30;4.90;;;;;;;14.06;79.05;94822.56;5053492;28;20441;-81
2022/09/14 03:21:48;;;;;;;5.50;4.87;;;;;;;14.04;78.90;94832.44;5053274;28;20441;-81
2022/09/14 03:24:14;;;;;;;5.70;5.20;;;;;;;13.98;78.87;94819.88;5053234;28;20448;-81
2022/09/14 03:26:41;;;;;;;7.50;5.60;;;;;;;14.00;79.16;94827.63;5052852;28;20446;-81
2022/09/14 03:29:08;;;;;;;5.30;4.90;;;;;;;13.99;78.97;94831.25;5053076;28;20508;-81
2022/09/14 03:31:35;;;;;;;5.27;4.90;;;;;;;13.99;78.89;94818.88;5052982;28;20441;-80
2022/09/14 03:34:02;;;;;;;6.20;5.70;;;;;;;13.99;79.21;94823.34;5053001;28;20944;-81
2022/09/14 03:36:31;;;;;;;6.13;5.50;;;;;;;14.00;78.87;94828.47;5052918;28;20537;-81
2022/09/14 03:39:00;;;;;;;6.20;5.70;;;;;;;14.00;79.34;94831.09;5052918;28;20449;-82
2022/09/14 03:41:28;;;;;;;5.43;4.90;;;;;;;14.03;79.24;94833.41;5034114;28;21003;-81
2022/09/14 03:43:54;;;;;;;5.57;5.07;;;;;;;13.99;79.42;94824.16;5052736;28;20442;-82
2022/09/14 03:46:24;;;;;;;7.97;5.23;;;;;;;14.00;79.08;94817.91;5052748;28;20481;-81
2022/09/14 03:48:51;;;;;;;5.90;5.17;;;;;;;13.96;79.68;94819.19;5052744;28;20812;-82
2022/09/14 03:51:18;;;;;;;6.10;5.50;;;;;;;13.94;79.46;94816.72;5052657;28;20442;-82
2022/09/14 03:53:47;;;;;;;6.20;5.30;;;;;;;13.83;79.81;94809.00;5033887;28;20437;-80
2022/09/14 03:56:16;;;;;;;8.47;5.50;;;;;;;13.86;80.05;94818.44;5052738;28;20936;-81
2022/09/14 03:58:44;;;;;;;5.37;4.90;;;;;;;13.84;79.94;94828.28;5052480;28;20446;-81
2022/09/14 04:01:13;;;;;;;5.82;5.32;;;;;;;13.80;80.65;94822.50;5052653;28;20447;-81
2022/09/14 04:03:40;;;;;;;10.70;5.43;;;;;;;13.81;80.65;94826.78;5052365;28;20297;-81
2022/09/14 04:06:08;;;;;;;6.00;5.40;;;;;;;13.78;80.70;94821.81;5052380;28;20488;-81
2022/09/14 04:08:37;;;;;;;5.70;5.20;;;;;;;13.80;80.75;94827.78;5052707;28;20445;-81
2022/09/14 04:11:09;;;;;;;8.70;5.67;;;;;;;13.81;80.15;94832.06;5052472;28;20429;-80
2022/09/14 04:13:36;;;;;;;6.20;5.60;;;;;;;13.80;80.42;94825.13;5052668;28;20453;-81
2022/09/14 04:16:04;;;;;;;6.67;5.30;;;;;;;13.79;80.51;94825.28;5052471;28;20516;-81
2022/09/14 04:18:31;;;;;;;6.30;5.80;;;;;;;13.82;80.33;94835.53;5052227;28;20816;-80
2022/09/14 04:20:59;;;;;;;10.07;6.63;;;;;;;13.88;80.39;94824.41;5052035;28;20997;-81
2022/09/14 04:23:26;;;;;;;7.03;5.70;;;;;;;14.71;90.72;94825.66;5052612;28;20450;-84
2022/09/14 04:25:54;;;;;;;10.33;5.10;;;;;;;15.46;82.53;94824.00;5052551;28;20485;-79
2022/09/14 04:28:22;;;;;;;5.73;5.00;;;;;;;15.72;74.57;94831.03;5059294;28;20457;-78
2022/09/14 04:30:57;;;;;;;5.87;4.70;;;;;;;15.61;72.83;94826.03;5060898;28;20543;-80
2022/09/14 04:33:24;;;;;;;10.63;5.43;;;;;;;15.50;72.59;94833.25;5059654;28;20460;-80
2022/09/14 04:36:00;;;;;;;6.47;5.87;;;;;;;15.42;73.20;94819.19;5059501;28;20536;-80
2022/09/14 04:38:27;;;;;;;6.67;5.83;;;;;;;15.29;74.04;94835.50;5059623;28;21015;-79
2022/09/14 04:40:54;;;;;;;5.50;5.10;;;;;;;15.22;74.08;94826.56;5059761;28;20449;-81
2022/09/14 04:43:23;;;;;;;6.37;5.77;;;;;;;15.10;75.11;94838.44;5041282;28;20446;-81
2022/09/14 04:45:50;;;;;;;7.17;5.90;;;;;;;15.02;77.22;94833.06;5059570;28;20496;-82
2022/09/14 04:48:17;;;;;;;6.47;5.20;;;;;;;14.88;76.05;94830.06;5060067;28;20814;-82
2022/09/14 04:50:44;;;;;;;6.33;5.73;;;;;;;14.86;76.41;94837.31;5059613;28;20441;-81
2022/09/14 04:53:12;;;;;;;8.80;6.33;;;;;;;14.92;76.54;94845.59;5059665;28;20441;-81
2022/09/14 04:55:39;;;;;;;6.17;5.57;;;;;;;14.81;76.77;94847.53;5059486;28;20463;-80
2022/09/14 04:58:06;;;;;;;6.63;5.70;;;;;;;14.84;76.52;94844.56;5059758;28;20433;-80
2022/09/14 05:00:35;;;;;;;9.70;5.77;;;;;;;14.92;76.63;94846.41;5059549;28;20458;-81
2022/09/14 05:03:03;;;;;;;5.33;4.73;;;;;;;15.11;77.00;94853.28;5059866;28;20533;-81
2022/09/14 05:05:30;;;;;;;10.23;5.27;;;;;;;15.48;75.13;94848.47;5059360;28;20497;-79
2022/09/14 05:07:57;;;;;;;5.17;4.67;;;;;;;15.93;73.64;94857.88;5059420;28;20842;-81
2022/09/14 05:10:24;;;;;;;11.13;6.30;;;;;;;16.40;71.96;94863.34;5059408;28;20962;-79
2022/09/14 05:12:50;;;;;;;6.50;5.70;;;;;;;16.70;70.74;94863.66;5059816;28;20940;-81
2022/09/14 05:15:17;;;;;;;6.30;5.70;;;;;;;16.87;69.32;94860.00;5060004;28;20943;-80
2022/09/14 05:17:45;;;;;;;8.27;5.43;;;;;;;17.31;68.92;94876.25;5045283;28;20975;-79
2022/09/14 05:20:12;;;;;;;6.80;5.70;;;;;;;17.71;66.62;94871.81;5072136;28;20444;-80
2022/09/14 05:22:39;;;;;;;16.13;6.93;;;;;;;17.76;65.39;94872.13;5060685;28;20453;-79
2022/09/14 05:25:06;;;;;;;9.43;7.00;;;;;;;17.80;65.23;94877.91;5059443;28;20489;-80
2022/09/14 05:27:35;;;;;;;14.13;6.80;;;;;;;17.88;65.17;94877.84;5057469;28;20457;-79
2022/09/14 05:30:07;;;;;;;9.27;6.80;;;;;;;18.08;64.92;94881.72;5059246;28;20492;-83
2022/09/14 05:32:34;;;;;;;11.20;7.63;;;;;;;18.28;64.25;94876.78;5059135;28;20928;-80
2022/09/14 05:35:02;;;;;;;14.40;6.90;;;;;;;18.55;63.68;94878.88;5059342;28;20445;-81
2022/09/14 05:37:29;;;;;;;9.17;6.67;;;;;;;18.76;62.01;94890.69;5024063;28;20445;-80
2022/09/14 05:39:56;;;;;;;6.77;6.27;;;;;;;19.00;62.70;94898.44;5020609;28;20452;-80
2022/09/14 05:42:23;;;;;;;12.00;7.30;;;;;;;19.25;61.38;94896.34;5056079;28;20438;-80
2022/09/14 05:44:50;;;;;;;8.40;6.83;;;;;;;19.52;60.30;94900.19;5056123;28;20457;-81
2022/09/14 05:47:16;;;;;;;6.63;6.03;;;;;;;19.43;59.85;94893.34;5055486;28;20978;-81
2022/09/14 05:49:43;;;;;;;7.87;7.07;;;;;;;19.42;59.99;94889.03;5036207;28;20959;-81
2022/09/14 05:52:11;;;;;;;8.77;7.53;;;;;;;19.67;60.58;94890.41;5055136;28;20430;-81
2022/09/14 05:54:38;;;;;;;9.60;7.27;;;;;;;19.76;59.26;94899.94;5061700;28;20454;-81
2022/09/14 05:57:05;;;;;;;8.50;7.30;;;;;;;19.93;59.09;94894.38;5054800;28;20449;-80
2022/09/14 05:59:32;;;;;;;12.57;7.40;;;;;;;20.12;58.76;94899.13;5055323;28;20445;-81
2022/09/14 06:01:59;;;;;;;11.30;7.60;;;;;;;20.32;58.47;94894.00;5054638;28;20454;-81
2022/09/14 06:04:26;;;;;;;10.03;7.10;;;;;;;20.61;57.32;94899.25;5054801;28;20450;-79
2022/09/14 06:06:53;;;;;;;14.00;7.80;;;;;;;20.73;56.67;94902.22;5054535;28;20839;-81
2022/09/14 06:09:21;;;;;;;8.70;7.80;;;;;;;20.91;56.25;94894.56;5054664;28;20438;-81
2022/09/14 06:11:48;;;;;;;12.13;6.30;;;;;;;21.08;55.35;94899.59;5054768;28;20442;-81
2022/09/14 06:14:18;;;;;;;17.67;6.87;;;;;;;21.12;54.84;94900.91;5054366;28;20473;-81
2022/09/14 06:16:46;;;;;;;7.13;6.30;;;;;;;21.20;54.15;94898.88;5054407;28;20794;-80
2022/09/14 06:19:14;;;;;;;7.83;6.90;;;;;;;21.39;54.38;94900.06;5054296;28;20549;-81
2022/09/14 06:21:41;;;;;;;6.67;5.80;;;;;;;21.47;53.48;94899.91;5054122;28;20817;-81
2022/09/14 06:24:11;;;;;;;8.23;6.30;;;;;;;21.55;52.94;94894.41;5054573;28;20446;-81
2022/09/14 06:26:39;;;;;;;8.73;6.97;;;;;;;21.52;51.55;94894.81;5054138;28;20488;-81
2022/09/14 06:29:06;;;;;;;8.50;5.57;;;;;;;21.40;52.23;94895.56;5054070;28;20489;-81
2022/09/14 06:31:33;;;;;;;6.33;5.27;;;;;;;21.47;52.13;94886.56;5054374;28;20634;-80
2022/09/14 06:34:00;;;;;;;5.20;4.80;;;;;;;21.72;51.85;94889.56;5053867;28;20457;-81
2022/09/14 06:36:28;;;;;;;6.60;4.70;;;;;;;21.70;51.23;94886.28;5054208;28;20500;-82
2022/09/14 06:38:55;;;;;;;4.80;4.50;;;;;;;21.49;50.65;94873.00;5053999;28;20446;-81
2022/09/14 06:41:25;;;;;;;7.23;5.30;;;;;;;21.65;50.94;94876.16;5054055;28;20437;-81
2022/09/14 06:43:56;;;;;;;5.07;4.67;;;;;;;21.83;51.65;94872.97;5053901;28;20450;-80
2022/09/14 06:46:25;;;;;;;5.90;5.30;;;;;;;21.67;51.03;94883.16;5054097;28;20487;-81
2022/09/14 06:48:54;;;;;;;5.50;5.00;;;;;;;21.55;51.37;94881.06;5053391;28;20890;-81
2022/09/14 06:51:26;;;;;;;5.47;5.07;;;;;;;21.74;51.64;94879.50;5052968;28;20446;-80
2022/09/14 06:53:55;;;;;;;5.27;4.83;;;;;;;21.94;51.70;94883.06;5053542;28;20936;-82
2022/09/14 06:56:22;;;;;;;6.77;5.10;;;;;;;22.00;50.50;94878.78;5053159;28;20449;-80
2022/09/14 06:58:50;;;;;;;4.97;4.57;;;;;;;21.76;50.74;94885.47;5053938;28;20441;-81
2022/09/14 07:01:20;;;;;;;5.87;4.90;;;;;;;21.81;50.94;94887.53;5053462;28;20457;-81
2022/09/14 07:03:47;;;;;;;4.80;4.40;;;;;;;21.76;51.33;94880.13;5053170;28;20453;-80
2022/09/14 07:06:16;;;;;;;6.50;5.67;;;;;;;21.77;51.64;94886.31;5053489;28;20473;-81
2022/09/14 07:08:44;;;;;;;5.23;4.73;;;;;;;21.91;51.23;94890.66;5053488;28;20450;-82
2022/09/14 07:11:13;;;;;;;4.80;4.40;;;;;;;22.15;50.93;94886.66;5053168;28;20465;-81
2022/09/14 07:13:40;;;;;;;5.13;4.63;;;;;;;22.08;49.76;94885.84;5053433;28;20446;-81
2022/09/14 07:16:07;;;;;;;7.93;5.67;;;;;;;22.14;49.86;94875.16;5018214;28;20810;-81
2022/09/14 07:18:36;;;;;;;5.63;5.23;;;;;;;22.20;50.76;94877.00;5053306;28;20537;-81
2022/09/14 07:21:04;;;;;;;7.27;4.97;;;;;;;22.16;50.84;94872.28;5053137;28;20457;-81
2022/09/14 07:23:31;;;;;;;8.20;5.53;;;;;;;22.24;50.99;94872.91;5053018;28;20446;-81
2022/09/14 07:26:03;;;;;;;10.43;5.40;;;;;;;22.46;50.82;94878.09;5052984;28;20503;-81
2022/09/14 07:28:29;;;;;;;5.63;5.20;;;;;;;22.32;50.59;94884.47;5052915;28;20499;-81
2022/09/14 07:30:56;;;;;;;6.53;5.50;;;;;;;22.46;50.18;94868.22;5053170;28;21014;-81
2022/09/14 07:33:23;;;;;;;5.87;5.40;;;;;;;22.51;50.47;94872.97;5053347;28;20558;-82
2022/09/14 07:35:52;;;;;;;5.33;4.60;;;;;;;22.56;51.15;94873.19;5052763;28;21032;-81
2022/09/14 07:38:19;;;;;;;8.37;5.10;;;;;;;22.58;49.49;94865.78;5052678;28;20914;-81
2022/09/14 07:40:46;;;;;;;6.37;5.77;;;;;;;22.62;49.99;94855.50;5017875;28;20442;-81
2022/09/14 07:43:13;;;;;;;4.73;4.30;;;;;;;22.73;48.87;94855.69;5052725;28;20979;-81
2022/09/14 07:45:40;;;;;;;4.90;4.50;;;;;;;22.83;48.82;94869.50;5017810;28;20796;-81
2022/09/14 07:48:06;;;;;;;7.90;6.37;;;;;;;22.59;49.60;94871.97;5052822;28;20468;-81
2022/09/14 07:50:33;;;;;;;6.90;5.20;;;;;;;22.21;49.35;94869.81;5053005;28;20449;-81
2022/09/14 07:53:01;;;;;;;6.27;5.20;;;;;;;22.13;49.88;94868.16;5052764;28;20446;-82
2022/09/14 07:55:28;;;;;;;5.77;5.17;;;;;;;22.32;50.71;94860.41;5017615;28;20441;-81
2022/09/14 07:57:56;;;;;;;5.10;4.70;;;;;;;22.45;49.52;94861.22;5052519;28;20441;-82
2022/09/14 08:00:23;;;;;;;5.13;4.73;;;;;;;22.61;48.47;94870.72;5052709;28;20446;-82
2022/09/14 08:02:52;;;;;;;5.50;5.00;;;;;;;22.61;48.76;94865.38;5051808;28;20571;-82
2022/09/14 08:05:19;;;;;;;4.83;4.53;;;;;;;22.89;49.05;94867.06;5052749;28;20446;-82
2022/09/14 08:07:46;;;;;;;7.43;5.17;;;;;;;23.17;48.59;94871.16;5051999;28;21086;-81
2022/09/14 08:10:14;;;;;;;7.97;4.43;;;;;;;22.79;48.61;94881.63;5052615;28;20813;-82
2022/09/14 08:12:41;;;;;;;6.10;4.23;;;;;;;22.62;49.95;94869.69;5050223;28;20453;-82
2022/09/14 08:15:10;;;;;;;6.07;5.07;;;;;;;22.79;48.72;94860.22;5052547;28;20441;-81
2022/09/14 08:17:37;;;;;;;7.00;4.90;;;;;;;23.02;48.08;94867.03;5052564;28;20473;-82
2022/09/14 08:20:05;;;;;;;8.50;5.20;;;;;;;23.13;48.66;94861.03;5052239;28;20445;-81
2022/09/14 08:22:31;;;;;;;6.50;6.00;;;;;;;23.32;48.13;94854.84;5052241;28;20933;-81
2022/09/14 08:24:58;;;;;;;5.93;4.67;;;;;;;23.36;48.17;94858.75;5052586;28;20450;-81
2022/09/14 08:27:27;;;;;;;9.10;4.40;;;;;;;23.44;48.25;94853.19;5052153;28;20489;-82
2022/09/14 08:29:53;;;;;;;4.90;4.50;;;;;;;23.65;46.80;94845.91;5052162;28;20492;-81
2022/09/14 08:32:20;;;;;;;6.40;5.10;;;;;;;23.82;46.97;94838.25;5051928;28;20453;-82
2022/09/14 08:34:47;;;;;;;4.83;4.23;;;;;;;23.56;46.51;94831.94;5051931;28;20468;-82
2022/09/14 08:37:14;;;;;;;7.57;4.70;;;;;;;23.78;46.74;94837.84;5052030;28;20527;-82
2022/09/14 08:39:41;;;;;;;7.30;4.60;;;;;;;24.02;45.84;94847.03;5051823;28;20480;-82
2022/09/14 08:42:15;;;;;;;5.27;4.27;;;;;;;24.07;46.35;94839.97;5052096;28;20846;-82
2022/09/14 08:44:47;;;;;;;7.40;4.33;;;;;;;24.05;46.24;94850.09;5052046;28;20448;-82
2022/09/14 08:47:19;;;;;;;5.00;4.60;;;;;;;24.17;45.59;94850.22;5051723;28;20485;-82
2022/09/14 08:49:50;;;;;;;5.43;4.60;;;;;;;24.31;44.95;94843.78;5051946;28;20517;-82
2022/09/14 08:52:24;;;;;;;5.90;5.00;;;;;;;24.49;45.31;94836.84;5052028;28;20906;-81
2022/09/14 08:54:55;;;;;;;6.90;5.00;;;;;;;24.71;45.44;94838.13;5052488;28;20448;-82
2022/09/14 08:57:29;;;;;;;8.33;5.27;;;;;;;24.59;44.90;94838.03;5051372;28;20457;-81
2022/09/14 09:00:07;;;;;;;5.60;5.10;;;;;;;24.72;44.73;94829.03;5051861;28;20496;-82
2022/09/14 09:02:57;;;;;;;12.77;5.37;;;;;;;24.70;44.13;94821.22;5052103;28;20445;-81
2022/09/14 09:05:33;;;;;;;6.07;5.47;;;;;;;24.61;45.41;94835.94;5014364;28;20524;-81
2022/09/14 09:08:08;;;;;;;6.97;4.97;;;;;;;24.44;45.00;94829.47;5051853;28;20863;-82
2022/09/14 09:10:38;;;;;;;8.07;5.00;;;;;;;24.34;45.81;94824.59;5051929;28;20495;-81
2022/09/14 09:13:10;;;;;;;6.50;5.83;;;;;;;24.35;46.15;94825.41;5052319;28;20532;-81
2022/09/14 09:15:44;;;;;;;6.40;4.90;;;;;;;24.29;46.22;94821.72;5055746;28;20441;-81
2022/09/14 09:18:18;;;;;;;5.50;5.10;;;;;;;24.34;45.65;94816.53;5055377;28;20506;-81
2022/09/14 09:20:48;;;;;;;18.03;5.70;;;;;;;24.41;45.64;94808.44;5055383;28;20852;-80
2022/09/14 09:23:17;;;;;;;7.73;4.70;;;;;;;24.62;46.12;94807.25;5055563;28;20450;-81
2022/09/14 09:25:58;;;;;;;7.23;4.97;;;;;;;24.75;44.96;94815.19;5055359;28;20434;-81
2022/09/14 09:28:27;;;;;;;5.77;4.63;;;;;;;24.93;45.25;94806.38;5055651;28;20461;-81
2022/09/14 09:31:03;;;;;;;5.50;4.47;;;;;;;25.07;43.54;94807.09;5055155;28;20837;-81
2022/09/14 09:33:31;;;;;;;5.07;4.63;;;;;;;25.07;44.60;94813.28;5055113;28;20777;-81
2022/09/14 09:35:58;;;;;;;12.53;5.20;;;;;;;24.99;44.83;94816.25;5020303;28;20450;-81
2022/09/14 09:38:28;;;;;;;5.77;4.57;;;;;;;25.07;43.87;94812.44;5055088;28;20442;-81
2022/09/14 09:40:59;;;;;;;4.83;4.43;;;;;;;25.09;43.03;94811.19;5020039;28;20434;-81
2022/09/14 09:43:26;;;;;;;12.23;4.93;;;;;;;25.14;44.38;94805.16;5055350;28;20442;-81
2022/09/14 09:46:00;;;;;;;11.90;4.70;;;;;;;25.32;43.96;94806.00;5055045;28;20541;-81
2022/09/14 09:48:31;;;;;;;9.10;4.30;;;;;;;25.39;43.14;94805.09;5055212;28;20495;-81
2022/09/14 09:51:06;;;;;;;11.50;4.77;;;;;;;25.39;42.25;94799.72;5054958;28;20846;-82
2022/09/14 09:53:36;;;;;;;10.47;4.83;;;;;;;25.47;42.42;94807.50;5054975;28;20456;-82
2022/09/14 09:56:04;;;;;;;7.90;4.87;;;;;;;25.15;42.64;94810.28;5054762;28;20480;-80
2022/09/14 09:58:35;;;;;;;8.07;5.57;;;;;;;25.05;44.16;94799.25;5055124;28;20456;-81
2022/09/14 10:01:17;;;;;;;5.27;4.70;;;;;;;25.14;45.30;94792.53;5054643;28;20495;-82
2022/09/14 10:03:59;;;;;;;11.73;5.63;;;;;;;25.23;44.46;94788.53;5054709;28;20444;-82
2022/09/14 10:06:26;;;;;;;11.40;4.77;;;;;;;25.18;43.94;94787.56;5054622;28;20446;-82
2022/09/14 10:08:56;;;;;;;5.20;4.70;;;;;;;25.22;42.94;94786.91;5054455;28;20460;-81
2022/09/14 10:11:29;;;;;;;7.83;4.93;;;;;;;25.23;42.72;94780.47;5054495;28;20442;-81
2022/09/14 10:13:57;;;;;;;6.27;4.73;;;;;;;25.26;43.51;94782.72;5019552;28;20518;-82
2022/09/14 10:16:34;;;;;;;7.03;4.43;;;;;;;25.41;42.24;94781.50;5054578;28;20933;-81
2022/09/14 10:19:02;;;;;;;6.77;4.23;;;;;;;25.29;42.49;94776.91;5019462;28;20439;-82
2022/09/14 10:21:32;;;;;;;6.57;4.70;;;;;;;25.02;42.77;94767.47;5054658;28;20507;-81
2022/09/14 10:24:16;;;;;;;6.87;4.20;;;;;;;24.90;43.91;94767.38;5055037;28;20461;-82
2022/09/14 10:26:43;;;;;;;6.20;3.73;;;;;;;24.75;43.80;94758.00;5055383;28;20964;-82
2022/09/14 10:29:34;;;;;;;6.03;3.53;;;;;;;24.81;43.40;94754.44;5054976;28;20482;-82
2022/09/14 10:32:11;;;;;;;6.30;4.20;;;;;;;24.91;44.32;94752.06;5055082;28;20440;-82
2022/09/14 10:34:38;;;;;;;5.87;4.77;;;;;;;24.99;45.55;94762.56;5055538;28;20449;-82
2022/09/14 10:37:20;;;;;;;4.37;3.80;;;;;;;25.04;44.39;94748.44;5020565;28;20508;-81
2022/09/14 10:40:09;;;;;;;6.67;4.17;;;;;;;25.13;42.31;94749.78;5055381;28;20434;-84
2022/09/14 10:42:42;;;;;;;7.50;5.10;;;;;;;25.13;43.74;94747.94;5055504;28;20453;-82
2022/09/14 10:45:18;;;;;;;8.10;4.10;;;;;;;25.13;42.68;94749.78;5055472;28;20442;-83
2022/09/14 10:48:05;;;;;;;9.90;4.47;;;;;;;25.27;41.73;94743.25;5054753;28;20485;-84
2022/09/14 10:50:44;;;;;;;5.43;4.10;;;;;;;25.29;42.81;94739.28;5054865;28;20491;-83
2022/09/14 10:53:22;;;;;;;4.80;4.10;;;;;;;25.31;39.92;94750.63;5054631;28;20439;-83
2022/09/14 10:56:00;;;;;;;4.77;4.23;;;;;;;25.44;40.55;94746.13;5054944;28;20206;-85
2022/09/14 10:58:40;;;;;;;4.03;3.63;;;;;;;25.53;38.37;94744.78;5054880;28;20446;-86
2022/09/14 11:01:24;;;;;;;7.40;4.50;;;;;;;25.54;39.57;94736.50;5055121;28;20430;-83
2022/09/14 11:04:06;;;;;;;6.53;3.50;;;;;;;25.64;41.39;94733.28;5055181;28;20454;-84
2022/09/14 11:06:45;;;;;;;7.07;4.60;;;;;;;25.70;41.61;94721.63;5054635;28;20967;-87
2022/09/14 11:09:19;;;;;;;6.33;4.30;;;;;;;25.83;41.56;94726.84;5054598;28;20955;-86
2022/09/14 11:11:55;;;;;;;5.70;3.83;;;;;;;25.97;39.03;94737.41;5053731;28;20442;-82
2022/09/14 11:14:46;;;;;;;9.83;4.57;;;;;;;25.99;39.54;94741.50;5054024;28;20479;-83
2022/09/14 11:17:36;;;;;;;6.03;4.40;;;;;;;26.04;44.39;94730.91;5053914;28;20461;-82
2022/09/14 11:30:39;;;;;;;7.67;5.07;;;;;;;25.98;38.93;94725.59;5034827;28;20467;-82
2022/09/14 11:33:16;;;;;;;9.13;4.63;;;;;;;26.03;40.23;94720.38;5035132;28;20430;-82
2022/09/14 11:35:47;;;;;;;4.63;4.00;;;;;;;26.21;39.77;94728.34;5033361;28;20457;-82
2022/09/14 11:41:44;;;;;;;11.57;6.87;;;;;;;26.30;38.73;94710.81;5033793;28;20398;-82
2022/09/14 11:44:17;;;;;;;4.97;4.57;;;;;;;26.22;38.46;94705.78;5034110;28;20476;-80
2022/09/14 11:46:50;;;;;;;5.67;4.70;;;;;;;26.07;37.90;94697.34;5039050;28;20441;-82
2022/09/14 11:49:25;;;;;;;6.77;4.60;;;;;;;26.17;39.50;94693.03;5053742;28;20524;-81
2022/09/14 11:58:35;;;;;;;8.00;4.10;;;;;;;26.45;38.98;94687.00;5052809;28;20979;-82
2022/09/14 12:01:24;;;;;;;4.43;4.03;;;;;;;26.51;38.63;94693.31;5053966;28;20472;-81
2022/09/14 12:04:08;;;;;;;4.43;4.07;;;;;;;26.56;36.88;94698.81;5053634;28;20453;-82
2022/09/14 12:06:55;;;;;;;4.20;3.80;;;;;;;26.62;37.25;94687.16;5053227;28;20442;-81